Terminal Aerodrome Forecast
Issued by NWS

Home | Current Version | Previous Version | Text Only | Print | Product List | Glossary On
Versions: 1 2 3 4 5 6 7 8 9 10 11 12 13 14 15
000
FTUS43 KOAX 030520
TAFSNY
TAF
KSNY 030520Z 0306/0406 16010KT P6SM SCT200
     FM031700 16012G20KT P6SM BKN250
     FM032000 16012G20KT P6SM VCTS SCT070CB BKN120
     FM032200 16012G20KT 6SM -TSRA BKN050CB BKN100
     FM040100 22009KT P6SM VCTS SCT050CB BKN100=

USA.gov is the U.S. government's official web portal to all federal, state and local government web resources and services.